»·PEaware :: QFA728 YMML-YSCB

QFA728 :: YMML-YSCB

FLIGHT INFORMATION

Flight Status: Arrived
Operator:
Qantas Airways
More flights by this operator :: More flights under this callsign
Pilot: Merv A. (1555)
Aircraft: BOEING 737-800
(B738)
More flights by this aircraft type
Origin: YMML Melbourne Intl
Australia
Destination: YSCB Canberra
Australia
More flights between these airports :: More routes between these airports
Route: DOSEL1 DOSEL Y59 EBONY POLLI7A
File this flight plan on PilotEdge
Remarks: RMK / SIMBRIEF
Altitude:
(Current/Filed)
33,000ft
Speed:
(Current/Filed)
439kts
Departed: 13-Sep-19 01:26 AM
Arrived: 13-Sep-19 02:10 AM
Distance/Time
Traveled:
254nm/0:44
Distance/Time
To Go:
Arrived

Flight Plot

Page will automatically refresh every two minutes.

Flight plan parsing failed; only flown route is shown


Map Options




Map Legend


Flown Route
Filed Route
Departure Airport
Arrival Airport
Navaid (VOR, NDB)
Fix

Horizontal Profiles

Position Reports

Time Latitude Longitude Heading Altitude Ground
Speed
13-Sep-19 01:10 -37.666919 144.849999 262 441ft 0kts
13-Sep-19 01:11 -37.666919 144.849999 262 441ft 0kts
13-Sep-19 01:12 -37.666919 144.849999 262 441ft 0kts
13-Sep-19 01:13 -37.666919 144.849999 262 441ft 0kts
13-Sep-19 01:14 -37.666919 144.849999 262 441ft 0kts
13-Sep-19 01:15 -37.666919 144.849999 262 441ft 0kts
13-Sep-19 01:16 -37.666902 144.850152 262 441ft 2kts
13-Sep-19 01:17 -37.667038 144.850843 335 441ft 2kts
13-Sep-19 01:18 -37.667209 144.850909 351 441ft 0kts
13-Sep-19 01:19 -37.667209 144.850909 351 441ft 0kts
13-Sep-19 01:20 -37.667209 144.850909 351 441ft 0kts
13-Sep-19 01:21 -37.666473 144.850774 351 441ft 7kts
13-Sep-19 01:22 -37.665585 144.850629 352 441ft 7kts
13-Sep-19 01:23 -37.663302 144.848962 321 441ft 10kts
13-Sep-19 01:24 -37.662257 144.847467 273 441ft 0kts
13-Sep-19 01:25 -37.659764 144.812933 276 1542ft 155kts
13-Sep-19 01:26 -37.656607 144.755780 271 3766ft 199kts
13-Sep-19 01:27 -37.652220 144.680361 276 6316ft 232kts
13-Sep-19 01:28 -37.593909 144.632874 338 8997ft 288kts
13-Sep-19 01:29 -37.512423 144.644775 39 11485ft 345kts
13-Sep-19 01:30 -37.463315 144.751640 61 14126ft 363kts
13-Sep-19 01:31 -37.411154 144.864213 59 16716ft 383kts
13-Sep-19 01:32 -37.352874 144.989907 59 17724ft 447kts
13-Sep-19 01:33 -37.289301 145.128297 59 19907ft 465kts
13-Sep-19 01:34 -37.223091 145.271018 59 21923ft 481kts
13-Sep-19 01:35 -37.153482 145.417975 55 23794ft 495kts
13-Sep-19 01:36 -37.071139 145.560255 52 25376ft 510kts
13-Sep-19 01:37 -36.986423 145.705439 52 26799ft 523kts
13-Sep-19 01:38 -36.900555 145.853950 53 28105ft 535kts
13-Sep-19 01:39 -36.812532 146.005562 52 29460ft 541kts
13-Sep-19 01:40 -36.724377 146.156578 52 30999ft 539kts
13-Sep-19 01:41 -36.636020 146.307231 52 32439ft 538kts
13-Sep-19 01:42 -36.547260 146.457907 52 33283ft 542kts
13-Sep-19 01:43 -36.458538 146.607867 52 33288ft 538kts
13-Sep-19 01:44 -36.369917 146.757073 52 33289ft 537kts
13-Sep-19 01:45 -36.281102 146.906213 51 32802ft 535kts
13-Sep-19 01:46 -36.194001 147.055374 57 31081ft 533kts
13-Sep-19 01:47 -36.136927 147.222229 73 28660ft 523kts
13-Sep-19 01:48 -36.091184 147.386931 71 26717ft 498kts
13-Sep-19 01:49 -36.045794 147.546419 71 24806ft 485kts
13-Sep-19 01:50 -36.001200 147.701607 71 22910ft 469kts
13-Sep-19 01:51 -35.957814 147.851020 71 20832ft 454kts
13-Sep-19 01:52 -35.915686 147.995180 71 19018ft 441kts
13-Sep-19 01:53 -35.874315 148.136013 71 17233ft 430kts
13-Sep-19 01:54 -35.834159 148.272682 71 15491ft 417kts
13-Sep-19 01:55 -35.795209 148.404229 71 13897ft 392kts
13-Sep-19 01:56 -35.759566 148.523315 71 12489ft 357kts
13-Sep-19 01:57 -35.726900 148.633028 71 11312ft 324kts
13-Sep-19 01:59 -35.696731 148.734904 71 10377ft 309kts
13-Sep-19 02:00 -35.667495 148.832824 71 9478ft 301kts
13-Sep-19 02:01 -35.639009 148.928302 70 8563ft 294kts
13-Sep-19 02:02 -35.611657 149.019383 70 7870ft 278kts
13-Sep-19 02:03 -35.584527 149.106823 68 7208ft 261kts
13-Sep-19 02:04 -35.553561 149.180376 36 6572ft 237kts
13-Sep-19 02:05 -35.492357 149.194874 355 5320ft 235kts
13-Sep-19 02:06 -35.428444 149.194446 358 4091ft 214kts
13-Sep-19 02:07 -35.374716 149.194446 358 3071ft 166kts
13-Sep-19 02:08 -35.332502 149.194369 358 2244ft 146kts
13-Sep-19 02:09 -35.299654 149.194387 359 1894ft 47kts
13-Sep-19 02:10 -35.295880 149.195089 96 1894ft 0kts
13-Sep-19 02:11 -35.295914 149.195330 100 1894ft 6kts
13-Sep-19 02:12 -35.298488 149.195945 180 1894ft 9kts
13-Sep-19 02:13 -35.300987 149.195944 180 1894ft 7kts
13-Sep-19 02:14 -35.301691 149.196704 116 1894ft 3kts
13-Sep-19 02:15 -35.301725 149.196773 122 1894ft 0kts
13-Sep-19 02:16 -35.301725 149.196773 122 1894ft 0kts

Navigation Log

Ident Type
Flight plan parsing failed, navigation log unavailable